sensor_id;sensor_type;location;lat;lon;timestamp;temperature;humidity
37276;DHT22;23166;51.150;21.620;2022-11-14T00:00:29;6.70;99.90
37276;DHT22;23166;51.150;21.620;2022-11-14T00:03:03;6.70;99.90
37276;DHT22;23166;51.150;21.620;2022-11-14T00:05:30;6.70;99.90
37276;DHT22;23166;51.150;21.620;2022-11-14T00:07:57;6.70;99.90
37276;DHT22;23166;51.150;21.620;2022-11-14T00:10:24;6.70;99.90
37276;DHT22;23166;51.150;21.620;2022-11-14T00:12:50;6.70;99.90
37276;DHT22;23166;51.150;21.620;2022-11-14T00:15:17;6.70;99.90
37276;DHT22;23166;51.150;21.620;2022-11-14T00:17:43;6.70;99.90
37276;DHT22;23166;51.150;21.620;2022-11-14T00:20:10;6.70;99.90
37276;DHT22;23166;51.150;21.620;2022-11-14T00:22:37;6.70;99.90
37276;DHT22;23166;51.150;21.620;2022-11-14T00:25:04;6.70;99.90
37276;DHT22;23166;51.150;21.620;2022-11-14T00:27:30;6.70;99.90
37276;DHT22;23166;51.150;21.620;2022-11-14T00:29:57;6.70;99.90
37276;DHT22;23166;51.150;21.620;2022-11-14T00:32:23;6.70;99.90
37276;DHT22;23166;51.150;21.620;2022-11-14T00:34:50;6.70;99.90
37276;DHT22;23166;51.150;21.620;2022-11-14T00:37:16;6.70;99.90
37276;DHT22;23166;51.150;21.620;2022-11-14T00:39:42;6.70;99.90
37276;DHT22;23166;51.150;21.620;2022-11-14T00:42:09;6.70;99.90
37276;DHT22;23166;51.150;21.620;2022-11-14T00:44:35;6.70;99.90
37276;DHT22;23166;51.150;21.620;2022-11-14T00:47:02;6.60;99.90
37276;DHT22;23166;51.150;21.620;2022-11-14T00:49:28;6.60;99.90
37276;DHT22;23166;51.150;21.620;2022-11-14T00:51:54;6.70;99.90
37276;DHT22;23166;51.150;21.620;2022-11-14T00:54:21;6.70;99.90
37276;DHT22;23166;51.150;21.620;2022-11-14T00:56:47;6.60;99.90
37276;DHT22;23166;51.150;21.620;2022-11-14T00:59:13;6.70;99.90
37276;DHT22;23166;51.150;21.620;2022-11-14T01:01:40;6.70;99.90
37276;DHT22;23166;51.150;21.620;2022-11-14T01:04:06;6.70;99.90
37276;DHT22;23166;51.150;21.620;2022-11-14T01:06:33;6.70;99.90
37276;DHT22;23166;51.150;21.620;2022-11-14T01:08:59;6.70;99.90
37276;DHT22;23166;51.150;21.620;2022-11-14T01:11:25;6.60;99.90
37276;DHT22;23166;51.150;21.620;2022-11-14T01:13:52;6.60;99.90
37276;DHT22;23166;51.150;21.620;2022-11-14T01:16:19;6.60;99.90
37276;DHT22;23166;51.150;21.620;2022-11-14T01:18:46;6.60;99.90
37276;DHT22;23166;51.150;21.620;2022-11-14T01:21:13;6.60;99.90
37276;DHT22;23166;51.150;21.620;2022-11-14T01:23:40;6.60;99.90
37276;DHT22;23166;51.150;21.620;2022-11-14T01:26:11;6.60;99.90
37276;DHT22;23166;51.150;21.620;2022-11-14T01:28:37;6.60;99.90
37276;DHT22;23166;51.150;21.620;2022-11-14T01:31:22;6.60;99.90
37276;DHT22;23166;51.150;21.620;2022-11-14T01:33:50;6.50;99.90
37276;DHT22;23166;51.150;21.620;2022-11-14T01:36:17;6.60;99.90
37276;DHT22;23166;51.150;21.620;2022-11-14T01:38:44;6.60;99.90
37276;DHT22;23166;51.150;21.620;2022-11-14T01:41:13;6.60;99.90
37276;DHT22;23166;51.150;21.620;2022-11-14T01:43:41;6.60;99.90
37276;DHT22;23166;51.150;21.620;2022-11-14T01:49:04;6.60;99.90
37276;DHT22;23166;51.150;21.620;2022-11-14T01:51:39;6.60;99.90
37276;DHT22;23166;51.150;21.620;2022-11-14T01:54:07;6.60;99.90
37276;DHT22;23166;51.150;21.620;2022-11-14T01:56:37;6.60;99.90
37276;DHT22;23166;51.150;21.620;2022-11-14T01:59:13;6.60;99.90
37276;DHT22;23166;51.150;21.620;2022-11-14T02:01:47;6.60;99.90
37276;DHT22;23166;51.150;21.620;2022-11-14T02:04:19;6.60;99.90
37276;DHT22;23166;51.150;21.620;2022-11-14T02:06:47;6.60;99.90
37276;DHT22;23166;51.150;21.620;2022-11-14T02:09:14;6.50;99.90
37276;DHT22;23166;51.150;21.620;2022-11-14T02:11:43;6.50;99.90
37276;DHT22;23166;51.150;21.620;2022-11-14T02:14:10;6.50;99.90
37276;DHT22;23166;51.150;21.620;2022-11-14T02:16:40;6.50;99.90
37276;DHT22;23166;51.150;21.620;2022-11-14T02:19:07;6.50;99.90
37276;DHT22;23166;51.150;21.620;2022-11-14T02:21:34;6.50;99.90
37276;DHT22;23166;51.150;21.620;2022-11-14T02:24:00;6.50;99.90
37276;DHT22;23166;51.150;21.620;2022-11-14T02:26:27;6.40;99.90
37276;DHT22;23166;51.150;21.620;2022-11-14T02:28:53;6.40;99.90
37276;DHT22;23166;51.150;21.620;2022-11-14T02:31:21;6.40;99.90
37276;DHT22;23166;51.150;21.620;2022-11-14T02:33:47;6.40;99.90
37276;DHT22;23166;51.150;21.620;2022-11-14T02:36:14;6.30;99.90
37276;DHT22;23166;51.150;21.620;2022-11-14T02:38:40;6.30;99.90
37276;DHT22;23166;51.150;21.620;2022-11-14T02:41:07;6.30;99.90
37276;DHT22;23166;51.150;21.620;2022-11-14T02:43:33;6.30;99.90
37276;DHT22;23166;51.150;21.620;2022-11-14T02:46:00;6.30;99.90
37276;DHT22;23166;51.150;21.620;2022-11-14T02:48:26;6.30;99.90
37276;DHT22;23166;51.150;21.620;2022-11-14T02:50:52;6.30;99.90
37276;DHT22;23166;51.150;21.620;2022-11-14T02:53:19;6.30;99.90
37276;DHT22;23166;51.150;21.620;2022-11-14T02:55:45;6.20;99.90
37276;DHT22;23166;51.150;21.620;2022-11-14T02:58:12;6.20;99.90
37276;DHT22;23166;51.150;21.620;2022-11-14T03:00:38;6.20;99.90
37276;DHT22;23166;51.150;21.620;2022-11-14T03:03:04;6.20;99.90
37276;DHT22;23166;51.150;21.620;2022-11-14T03:05:31;6.20;99.90
37276;DHT22;23166;51.150;21.620;2022-11-14T03:07:57;6.20;99.90
37276;DHT22;23166;51.150;21.620;2022-11-14T03:10:23;6.20;99.90
37276;DHT22;23166;51.150;21.620;2022-11-14T03:12:55;6.20;99.90
37276;DHT22;23166;51.150;21.620;2022-11-14T03:15:22;6.20;99.90
37276;DHT22;23166;51.150;21.620;2022-11-14T03:17:49;6.20;99.90
37276;DHT22;23166;51.150;21.620;2022-11-14T03:20:16;6.10;99.90
37276;DHT22;23166;51.150;21.620;2022-11-14T03:22:42;6.10;99.90
37276;DHT22;23166;51.150;21.620;2022-11-14T03:25:09;6.10;99.90
37276;DHT22;23166;51.150;21.620;2022-11-14T03:27:35;6.10;99.90
37276;DHT22;23166;51.150;21.620;2022-11-14T03:30:02;6.10;99.90
37276;DHT22;23166;51.150;21.620;2022-11-14T03:32:28;6.10;99.90
37276;DHT22;23166;51.150;21.620;2022-11-14T03:34:54;6.10;99.90
37276;DHT22;23166;51.150;21.620;2022-11-14T03:37:21;6.10;99.90
37276;DHT22;23166;51.150;21.620;2022-11-14T03:39:47;6.10;99.90
37276;DHT22;23166;51.150;21.620;2022-11-14T03:42:13;6.10;99.90
37276;DHT22;23166;51.150;21.620;2022-11-14T03:44:40;6.10;99.90
37276;DHT22;23166;51.150;21.620;2022-11-14T03:47:06;6.10;99.90
37276;DHT22;23166;51.150;21.620;2022-11-14T03:49:33;6.10;99.90
37276;DHT22;23166;51.150;21.620;2022-11-14T03:51:59;6.10;99.90
37276;DHT22;23166;51.150;21.620;2022-11-14T03:54:25;6.10;99.90
37276;DHT22;23166;51.150;21.620;2022-11-14T03:56:52;6.10;99.90
37276;DHT22;23166;51.150;21.620;2022-11-14T03:59:18;6.10;99.90
37276;DHT22;23166;51.150;21.620;2022-11-14T04:01:45;6.00;99.90
37276;DHT22;23166;51.150;21.620;2022-11-14T04:04:12;6.00;99.90
37276;DHT22;23166;51.150;21.620;2022-11-14T04:06:38;6.00;99.90
37276;DHT22;23166;51.150;21.620;2022-11-14T04:09:05;6.10;99.90
37276;DHT22;23166;51.150;21.620;2022-11-14T04:11:32;6.10;99.90
37276;DHT22;23166;51.150;21.620;2022-11-14T04:13:58;6.10;99.90
37276;DHT22;23166;51.150;21.620;2022-11-14T04:16:24;6.00;99.90
37276;DHT22;23166;51.150;21.620;2022-11-14T04:18:51;6.00;99.90
37276;DHT22;23166;51.150;21.620;2022-11-14T04:21:17;6.10;99.90
37276;DHT22;23166;51.150;21.620;2022-11-14T04:23:44;6.00;99.90
37276;DHT22;23166;51.150;21.620;2022-11-14T04:26:10;6.10;99.90
37276;DHT22;23166;51.150;21.620;2022-11-14T04:28:36;6.10;99.90
37276;DHT22;23166;51.150;21.620;2022-11-14T04:31:03;6.00;99.90
37276;DHT22;23166;51.150;21.620;2022-11-14T04:33:29;6.10;99.90
37276;DHT22;23166;51.150;21.620;2022-11-14T04:35:56;6.10;99.90
37276;DHT22;23166;51.150;21.620;2022-11-14T04:38:22;6.10;99.90
37276;DHT22;23166;51.150;21.620;2022-11-14T04:40:50;6.10;99.90
37276;DHT22;23166;51.150;21.620;2022-11-14T04:43:17;6.10;99.90
37276;DHT22;23166;51.150;21.620;2022-11-14T04:45:43;6.10;99.90
37276;DHT22;23166;51.150;21.620;2022-11-14T04:48:10;6.10;99.90
37276;DHT22;23166;51.150;21.620;2022-11-14T04:50:36;6.00;99.90
37276;DHT22;23166;51.150;21.620;2022-11-14T04:53:03;6.00;99.90
37276;DHT22;23166;51.150;21.620;2022-11-14T04:55:30;6.00;99.90
37276;DHT22;23166;51.150;21.620;2022-11-14T04:57:57;6.00;99.90
37276;DHT22;23166;51.150;21.620;2022-11-14T05:00:24;6.10;99.90
37276;DHT22;23166;51.150;21.620;2022-11-14T05:02:51;6.00;99.90
37276;DHT22;23166;51.150;21.620;2022-11-14T05:05:17;6.00;99.90
37276;DHT22;23166;51.150;21.620;2022-11-14T05:07:43;6.00;99.90
37276;DHT22;23166;51.150;21.620;2022-11-14T05:10:10;6.00;99.90
37276;DHT22;23166;51.150;21.620;2022-11-14T05:12:36;6.00;99.90
37276;DHT22;23166;51.150;21.620;2022-11-14T05:15:03;6.00;99.90
37276;DHT22;23166;51.150;21.620;2022-11-14T05:17:29;6.00;99.90
37276;DHT22;23166;51.150;21.620;2022-11-14T05:19:55;6.00;99.90
37276;DHT22;23166;51.150;21.620;2022-11-14T05:22:22;6.00;99.90
37276;DHT22;23166;51.150;21.620;2022-11-14T05:24:49;6.00;99.90
37276;DHT22;23166;51.150;21.620;2022-11-14T05:27:15;6.00;99.90
37276;DHT22;23166;51.150;21.620;2022-11-14T05:29:41;6.00;99.90
37276;DHT22;23166;51.150;21.620;2022-11-14T05:32:08;6.00;99.90
37276;DHT22;23166;51.150;21.620;2022-11-14T05:34:34;6.00;99.90
37276;DHT22;23166;51.150;21.620;2022-11-14T05:37:00;6.00;99.90
37276;DHT22;23166;51.150;21.620;2022-11-14T05:39:28;6.00;99.90
37276;DHT22;23166;51.150;21.620;2022-11-14T05:41:55;6.10;99.90
37276;DHT22;23166;51.150;21.620;2022-11-14T05:44:21;6.10;99.90
37276;DHT22;23166;51.150;21.620;2022-11-14T05:46:47;6.10;99.90
37276;DHT22;23166;51.150;21.620;2022-11-14T05:49:14;6.10;99.90
37276;DHT22;23166;51.150;21.620;2022-11-14T05:51:41;6.10;99.90
37276;DHT22;23166;51.150;21.620;2022-11-14T05:54:07;6.10;99.90
37276;DHT22;23166;51.150;21.620;2022-11-14T05:56:33;6.10;99.90
37276;DHT22;23166;51.150;21.620;2022-11-14T05:59:00;6.10;99.90
37276;DHT22;23166;51.150;21.620;2022-11-14T06:01:26;6.10;99.90
37276;DHT22;23166;51.150;21.620;2022-11-14T06:03:52;6.10;99.90
37276;DHT22;23166;51.150;21.620;2022-11-14T06:06:20;6.10;99.90
37276;DHT22;23166;51.150;21.620;2022-11-14T06:08:47;6.10;99.90
37276;DHT22;23166;51.150;21.620;2022-11-14T06:11:18;6.10;99.90
37276;DHT22;23166;51.150;21.620;2022-11-14T06:13:45;6.10;99.90
37276;DHT22;23166;51.150;21.620;2022-11-14T06:16:14;6.10;99.90
37276;DHT22;23166;51.150;21.620;2022-11-14T06:18:41;6.10;99.90
37276;DHT22;23166;51.150;21.620;2022-11-14T06:21:16;6.10;99.90
37276;DHT22;23166;51.150;21.620;2022-11-14T06:23:43;6.10;99.90
37276;DHT22;23166;51.150;21.620;2022-11-14T06:26:20;6.10;99.90
37276;DHT22;23166;51.150;21.620;2022-11-14T06:28:38;6.10;99.90
37276;DHT22;23166;51.150;21.620;2022-11-14T06:31:04;6.10;99.90
37276;DHT22;23166;51.150;21.620;2022-11-14T06:33:35;6.10;99.90
37276;DHT22;23166;51.150;21.620;2022-11-14T06:36:04;6.10;99.90
37276;DHT22;23166;51.150;21.620;2022-11-14T06:38:32;6.10;99.90
37276;DHT22;23166;51.150;21.620;2022-11-14T06:43:39;6.20;99.90
37276;DHT22;23166;51.150;21.620;2022-11-14T06:46:07;6.20;99.90
37276;DHT22;23166;51.150;21.620;2022-11-14T06:48:34;6.20;99.90
37276;DHT22;23166;51.150;21.620;2022-11-14T06:51:02;6.20;99.90
37276;DHT22;23166;51.150;21.620;2022-11-14T06:53:30;6.20;99.90
37276;DHT22;23166;51.150;21.620;2022-11-14T06:56:05;6.20;99.90
37276;DHT22;23166;51.150;21.620;2022-11-14T06:58:35;6.20;99.90
37276;DHT22;23166;51.150;21.620;2022-11-14T07:01:03;6.30;99.90
37276;DHT22;23166;51.150;21.620;2022-11-14T07:03:31;6.30;99.90
37276;DHT22;23166;51.150;21.620;2022-11-14T07:06:03;6.30;99.90
37276;DHT22;23166;51.150;21.620;2022-11-14T07:08:26;6.30;99.90
37276;DHT22;23166;51.150;21.620;2022-11-14T07:10:53;6.30;99.90
37276;DHT22;23166;51.150;21.620;2022-11-14T07:13:19;6.40;99.90
37276;DHT22;23166;51.150;21.620;2022-11-14T07:15:54;6.40;99.90
37276;DHT22;23166;51.150;21.620;2022-11-14T07:18:18;6.40;99.90
37276;DHT22;23166;51.150;21.620;2022-11-14T07:20:45;6.50;99.90
37276;DHT22;23166;51.150;21.620;2022-11-14T07:23:11;6.60;99.90
37276;DHT22;23166;51.150;21.620;2022-11-14T07:25:38;6.60;99.90
37276;DHT22;23166;51.150;21.620;2022-11-14T07:28:04;6.70;99.90
37276;DHT22;23166;51.150;21.620;2022-11-14T07:30:32;6.70;99.90
37276;DHT22;23166;51.150;21.620;2022-11-14T07:32:59;6.70;99.90
37276;DHT22;23166;51.150;21.620;2022-11-14T07:35:25;6.80;99.90
37276;DHT22;23166;51.150;21.620;2022-11-14T07:37:51;6.90;99.90
37276;DHT22;23166;51.150;21.620;2022-11-14T07:40:18;6.90;99.90
37276;DHT22;23166;51.150;21.620;2022-11-14T07:42:44;6.90;99.90
37276;DHT22;23166;51.150;21.620;2022-11-14T07:45:11;7.00;99.90
37276;DHT22;23166;51.150;21.620;2022-11-14T07:47:37;7.00;99.90
37276;DHT22;23166;51.150;21.620;2022-11-14T07:50:04;7.00;99.90
37276;DHT22;23166;51.150;21.620;2022-11-14T07:52:30;7.00;99.90
37276;DHT22;23166;51.150;21.620;2022-11-14T07:54:57;7.00;99.90
37276;DHT22;23166;51.150;21.620;2022-11-14T07:57:23;7.10;99.90
37276;DHT22;23166;51.150;21.620;2022-11-14T07:59:49;7.10;99.90
37276;DHT22;23166;51.150;21.620;2022-11-14T08:02:16;7.10;99.90
37276;DHT22;23166;51.150;21.620;2022-11-14T08:04:42;7.20;99.90
37276;DHT22;23166;51.150;21.620;2022-11-14T08:07:08;7.20;99.90
37276;DHT22;23166;51.150;21.620;2022-11-14T08:09:35;7.20;99.90
37276;DHT22;23166;51.150;21.620;2022-11-14T08:12:01;7.20;99.90
37276;DHT22;23166;51.150;21.620;2022-11-14T08:14:28;7.30;99.90
37276;DHT22;23166;51.150;21.620;2022-11-14T08:16:54;7.30;99.90
37276;DHT22;23166;51.150;21.620;2022-11-14T08:19:20;7.30;99.90
37276;DHT22;23166;51.150;21.620;2022-11-14T08:21:47;7.40;99.90
37276;DHT22;23166;51.150;21.620;2022-11-14T08:24:13;7.40;99.90
37276;DHT22;23166;51.150;21.620;2022-11-14T08:26:40;7.50;99.90
37276;DHT22;23166;51.150;21.620;2022-11-14T08:29:06;7.50;99.90
37276;DHT22;23166;51.150;21.620;2022-11-14T08:31:33;7.50;99.90
37276;DHT22;23166;51.150;21.620;2022-11-14T08:34:00;7.60;99.90
37276;DHT22;23166;51.150;21.620;2022-11-14T08:36:26;7.60;99.90
37276;DHT22;23166;51.150;21.620;2022-11-14T08:38:53;7.70;99.90
37276;DHT22;23166;51.150;21.620;2022-11-14T08:41:19;7.70;99.90
37276;DHT22;23166;51.150;21.620;2022-11-14T08:43:45;7.70;99.60
37276;DHT22;23166;51.150;21.620;2022-11-14T08:46:12;7.80;99.60
37276;DHT22;23166;51.150;21.620;2022-11-14T08:48:38;7.80;99.90
37276;DHT22;23166;51.150;21.620;2022-11-14T08:51:05;7.90;99.90
37276;DHT22;23166;51.150;21.620;2022-11-14T08:53:32;7.90;99.90
37276;DHT22;23166;51.150;21.620;2022-11-14T08:55:58;7.90;98.30
37276;DHT22;23166;51.150;21.620;2022-11-14T08:58:28;8.00;97.60
37276;DHT22;23166;51.150;21.620;2022-11-14T09:01:00;8.00;98.20
37276;DHT22;23166;51.150;21.620;2022-11-14T09:03:27;8.00;98.40
37276;DHT22;23166;51.150;21.620;2022-11-14T09:05:53;8.10;96.80
37276;DHT22;23166;51.150;21.620;2022-11-14T09:08:20;8.10;95.30
37276;DHT22;23166;51.150;21.620;2022-11-14T09:10:47;8.10;97.10
37276;DHT22;23166;51.150;21.620;2022-11-14T09:13:13;8.10;96.90
37276;DHT22;23166;51.150;21.620;2022-11-14T09:15:40;8.20;95.30
37276;DHT22;23166;51.150;21.620;2022-11-14T09:18:08;8.20;94.20
37276;DHT22;23166;51.150;21.620;2022-11-14T09:20:36;8.20;93.20
37276;DHT22;23166;51.150;21.620;2022-11-14T09:23:03;8.20;94.30
37276;DHT22;23166;51.150;21.620;2022-11-14T09:25:30;8.20;94.80
37276;DHT22;23166;51.150;21.620;2022-11-14T09:27:56;8.30;95.50
37276;DHT22;23166;51.150;21.620;2022-11-14T09:30:23;8.30;92.60
37276;DHT22;23166;51.150;21.620;2022-11-14T09:32:50;8.40;88.20
37276;DHT22;23166;51.150;21.620;2022-11-14T09:35:16;8.40;87.80
37276;DHT22;23166;51.150;21.620;2022-11-14T09:37:43;8.50;92.90
37276;DHT22;23166;51.150;21.620;2022-11-14T09:40:11;8.50;86.50
37276;DHT22;23166;51.150;21.620;2022-11-14T09:42:52;8.60;90.20
37276;DHT22;23166;51.150;21.620;2022-11-14T09:45:15;8.60;79.60
37276;DHT22;23166;51.150;21.620;2022-11-14T09:47:50;8.60;81.90
37276;DHT22;23166;51.150;21.620;2022-11-14T09:50:23;8.60;87.50
37276;DHT22;23166;51.150;21.620;2022-11-14T09:52:55;8.60;82.80
37276;DHT22;23166;51.150;21.620;2022-11-14T09:55:30;8.60;79.10
37276;DHT22;23166;51.150;21.620;2022-11-14T09:57:57;8.60;79.60
37276;DHT22;23166;51.150;21.620;2022-11-14T10:00:26;8.60;74.00
37276;DHT22;23166;51.150;21.620;2022-11-14T10:09:09;8.50;74.40
37276;DHT22;23166;51.150;21.620;2022-11-14T10:11:53;8.40;78.20
37276;DHT22;23166;51.150;21.620;2022-11-14T10:19:52;8.40;79.50
37276;DHT22;23166;51.150;21.620;2022-11-14T10:22:31;8.40;85.40
37276;DHT22;23166;51.150;21.620;2022-11-14T10:25:06;8.40;85.50
37276;DHT22;23166;51.150;21.620;2022-11-14T10:27:32;8.40;83.60
37276;DHT22;23166;51.150;21.620;2022-11-14T10:30:14;8.40;76.30
37276;DHT22;23166;51.150;21.620;2022-11-14T10:35:23;8.40;72.80
37276;DHT22;23166;51.150;21.620;2022-11-14T10:41:01;8.30;60.40
37276;DHT22;23166;51.150;21.620;2022-11-14T10:43:36;8.40;60.30
37276;DHT22;23166;51.150;21.620;2022-11-14T10:46:12;8.50;61.10
37276;DHT22;23166;51.150;21.620;2022-11-14T10:48:42;8.50;54.80
37276;DHT22;23166;51.150;21.620;2022-11-14T10:51:35;8.50;53.30
37276;DHT22;23166;51.150;21.620;2022-11-14T10:56:50;8.40;69.30
37276;DHT22;23166;51.150;21.620;2022-11-14T10:59:16;8.40;67.00
37276;DHT22;23166;51.150;21.620;2022-11-14T11:01:44;8.30;60.00
37276;DHT22;23166;51.150;21.620;2022-11-14T11:04:18;8.30;72.70
37276;DHT22;23166;51.150;21.620;2022-11-14T11:06:42;8.30;64.00
37276;DHT22;23166;51.150;21.620;2022-11-14T11:09:18;8.10;72.40
37276;DHT22;23166;51.150;21.620;2022-11-14T11:12:01;8.10;77.60
37276;DHT22;23166;51.150;21.620;2022-11-14T11:14:28;8.00;71.50
37276;DHT22;23166;51.150;21.620;2022-11-14T11:19:41;8.10;75.20
37276;DHT22;23166;51.150;21.620;2022-11-14T11:22:28;8.10;75.40
37276;DHT22;23166;51.150;21.620;2022-11-14T11:24:54;8.10;68.20
37276;DHT22;23166;51.150;21.620;2022-11-14T11:27:26;8.10;69.40
37276;DHT22;23166;51.150;21.620;2022-11-14T11:30:20;8.10;70.00
37276;DHT22;23166;51.150;21.620;2022-11-14T11:32:50;8.10;74.60
37276;DHT22;23166;51.150;21.620;2022-11-14T11:35:16;8.10;77.10
37276;DHT22;23166;51.150;21.620;2022-11-14T11:37:46;8.00;77.20
37276;DHT22;23166;51.150;21.620;2022-11-14T11:40:19;8.00;73.90
37276;DHT22;23166;51.150;21.620;2022-11-14T11:45:33;8.10;85.40
37276;DHT22;23166;51.150;21.620;2022-11-14T11:48:08;8.10;79.30
37276;DHT22;23166;51.150;21.620;2022-11-14T11:50:32;8.10;77.20
37276;DHT22;23166;51.150;21.620;2022-11-14T11:55:33;8.20;83.90
37276;DHT22;23166;51.150;21.620;2022-11-14T11:58:09;8.30;83.80
37276;DHT22;23166;51.150;21.620;2022-11-14T12:00:33;8.30;74.30
37276;DHT22;23166;51.150;21.620;2022-11-14T12:03:00;8.30;75.10
37276;DHT22;23166;51.150;21.620;2022-11-14T12:05:51;8.30;77.90
37276;DHT22;23166;51.150;21.620;2022-11-14T12:11:17;8.30;68.10
37276;DHT22;23166;51.150;21.620;2022-11-14T12:31:09;8.30;76.60
37276;DHT22;23166;51.150;21.620;2022-11-14T12:33:36;8.40;81.60
37276;DHT22;23166;51.150;21.620;2022-11-14T12:36:09;8.40;67.70
37276;DHT22;23166;51.150;21.620;2022-11-14T12:38:51;8.40;72.10
37276;DHT22;23166;51.150;21.620;2022-11-14T12:41:33;8.40;74.00
37276;DHT22;23166;51.150;21.620;2022-11-14T12:52:52;8.40;54.80
37276;DHT22;23166;51.150;21.620;2022-11-14T13:12:33;8.20;77.60
37276;DHT22;23166;51.150;21.620;2022-11-14T13:15:33;8.20;76.20
37276;DHT22;23166;51.150;21.620;2022-11-14T13:18:25;8.10;71.30
37276;DHT22;23166;51.150;21.620;2022-11-14T13:21:30;8.10;71.90
37276;DHT22;23166;51.150;21.620;2022-11-14T13:24:17;8.10;74.70
37276;DHT22;23166;51.150;21.620;2022-11-14T13:26:52;8.10;84.80
37276;DHT22;23166;51.150;21.620;2022-11-14T13:32:09;8.00;85.50
37276;DHT22;23166;51.150;21.620;2022-11-14T13:34:56;8.00;84.70
37276;DHT22;23166;51.150;21.620;2022-11-14T13:51:27;7.90;90.30
37276;DHT22;23166;51.150;21.620;2022-11-14T13:53:54;7.80;91.40
37276;DHT22;23166;51.150;21.620;2022-11-14T14:01:57;7.70;90.80
37276;DHT22;23166;51.150;21.620;2022-11-14T14:16:08;7.60;95.10
37276;DHT22;23166;51.150;21.620;2022-11-14T14:21:51;7.60;92.70
37276;DHT22;23166;51.150;21.620;2022-11-14T14:24:37;7.50;92.40
37276;DHT22;23166;51.150;21.620;2022-11-14T14:32:36;7.50;95.10
37276;DHT22;23166;51.150;21.620;2022-11-14T14:35:29;7.40;95.50
37276;DHT22;23166;51.150;21.620;2022-11-14T14:37:54;7.40;95.90
37276;DHT22;23166;51.150;21.620;2022-11-14T14:40:31;7.30;96.40
37276;DHT22;23166;51.150;21.620;2022-11-14T14:43:02;7.30;95.30
37276;DHT22;23166;51.150;21.620;2022-11-14T14:45:32;7.30;96.20
37276;DHT22;23166;51.150;21.620;2022-11-14T14:50:54;7.20;96.40
37276;DHT22;23166;51.150;21.620;2022-11-14T14:53:29;7.20;97.80
37276;DHT22;23166;51.150;21.620;2022-11-14T14:55:58;7.20;98.70
37276;DHT22;23166;51.150;21.620;2022-11-14T14:58:27;7.20;98.20
37276;DHT22;23166;51.150;21.620;2022-11-14T15:01:10;7.10;97.80
37276;DHT22;23166;51.150;21.620;2022-11-14T15:03:43;7.20;98.70
37276;DHT22;23166;51.150;21.620;2022-11-14T15:06:34;7.10;99.90
37276;DHT22;23166;51.150;21.620;2022-11-14T15:08:59;7.10;99.90
37276;DHT22;23166;51.150;21.620;2022-11-14T15:11:26;7.10;99.90
37276;DHT22;23166;51.150;21.620;2022-11-14T15:13:55;7.10;99.90
37276;DHT22;23166;51.150;21.620;2022-11-14T15:16:23;7.10;99.90
37276;DHT22;23166;51.150;21.620;2022-11-14T15:18:51;7.10;99.90
37276;DHT22;23166;51.150;21.620;2022-11-14T15:21:30;7.00;99.90
37276;DHT22;23166;51.150;21.620;2022-11-14T15:26:48;7.00;99.90
37276;DHT22;23166;51.150;21.620;2022-11-14T15:31:51;7.00;99.90
37276;DHT22;23166;51.150;21.620;2022-11-14T15:34:36;7.00;99.90
37276;DHT22;23166;51.150;21.620;2022-11-14T15:39:45;7.00;99.90
37276;DHT22;23166;51.150;21.620;2022-11-14T15:44:45;7.00;99.90
37276;DHT22;23166;51.150;21.620;2022-11-14T15:47:17;7.00;99.90
37276;DHT22;23166;51.150;21.620;2022-11-14T15:49:57;7.00;99.90
37276;DHT22;23166;51.150;21.620;2022-11-14T15:52:27;7.00;99.90
37276;DHT22;23166;51.150;21.620;2022-11-14T15:54:54;7.00;99.90
37276;DHT22;23166;51.150;21.620;2022-11-14T15:57:20;7.00;99.90
37276;DHT22;23166;51.150;21.620;2022-11-14T15:59:47;6.90;99.90
37276;DHT22;23166;51.150;21.620;2022-11-14T16:02:19;7.00;99.90
37276;DHT22;23166;51.150;21.620;2022-11-14T16:04:46;7.00;99.90
37276;DHT22;23166;51.150;21.620;2022-11-14T16:07:13;6.90;99.90
37276;DHT22;23166;51.150;21.620;2022-11-14T16:09:40;7.00;99.90
37276;DHT22;23166;51.150;21.620;2022-11-14T16:12:07;7.00;99.90
37276;DHT22;23166;51.150;21.620;2022-11-14T16:14:34;6.90;99.90
37276;DHT22;23166;51.150;21.620;2022-11-14T16:17:01;7.00;99.90
37276;DHT22;23166;51.150;21.620;2022-11-14T16:19:27;7.00;99.90
37276;DHT22;23166;51.150;21.620;2022-11-14T16:21:59;7.00;99.90
37276;DHT22;23166;51.150;21.620;2022-11-14T16:24:28;7.00;99.90
37276;DHT22;23166;51.150;21.620;2022-11-14T16:26:55;7.00;99.90
37276;DHT22;23166;51.150;21.620;2022-11-14T16:29:23;7.00;99.90
37276;DHT22;23166;51.150;21.620;2022-11-14T16:31:50;7.00;99.90
37276;DHT22;23166;51.150;21.620;2022-11-14T16:34:21;7.00;99.90
37276;DHT22;23166;51.150;21.620;2022-11-14T16:36:48;7.00;99.90
37276;DHT22;23166;51.150;21.620;2022-11-14T16:39:16;7.00;99.90
37276;DHT22;23166;51.150;21.620;2022-11-14T16:41:43;7.00;99.90
37276;DHT22;23166;51.150;21.620;2022-11-14T16:44:14;7.00;99.90
37276;DHT22;23166;51.150;21.620;2022-11-14T16:46:43;7.00;99.90
37276;DHT22;23166;51.150;21.620;2022-11-14T16:49:14;7.00;99.90
37276;DHT22;23166;51.150;21.620;2022-11-14T16:51:46;7.00;99.90
37276;DHT22;23166;51.150;21.620;2022-11-14T16:54:13;7.00;99.90
37276;DHT22;23166;51.150;21.620;2022-11-14T16:56:39;7.00;99.90
37276;DHT22;23166;51.150;21.620;2022-11-14T16:59:07;7.00;99.90
37276;DHT22;23166;51.150;21.620;2022-11-14T17:01:34;7.00;99.90
37276;DHT22;23166;51.150;21.620;2022-11-14T17:04:00;7.00;99.90
37276;DHT22;23166;51.150;21.620;2022-11-14T17:06:27;7.00;99.90
37276;DHT22;23166;51.150;21.620;2022-11-14T17:08:55;7.00;99.90
37276;DHT22;23166;51.150;21.620;2022-11-14T17:11:21;7.00;99.90
37276;DHT22;23166;51.150;21.620;2022-11-14T17:13:47;7.00;99.90
37276;DHT22;23166;51.150;21.620;2022-11-14T17:16:14;7.00;99.90
37276;DHT22;23166;51.150;21.620;2022-11-14T17:18:40;7.00;99.90
37276;DHT22;23166;51.150;21.620;2022-11-14T17:21:08;7.00;99.90
37276;DHT22;23166;51.150;21.620;2022-11-14T17:23:35;7.00;99.90
37276;DHT22;23166;51.150;21.620;2022-11-14T17:26:03;7.10;99.90
37276;DHT22;23166;51.150;21.620;2022-11-14T17:28:30;7.00;99.90
37276;DHT22;23166;51.150;21.620;2022-11-14T17:30:58;7.00;99.90
37276;DHT22;23166;51.150;21.620;2022-11-14T17:33:25;7.00;99.90
37276;DHT22;23166;51.150;21.620;2022-11-14T17:35:51;7.10;99.90
37276;DHT22;23166;51.150;21.620;2022-11-14T17:38:17;7.10;99.90
37276;DHT22;23166;51.150;21.620;2022-11-14T17:40:44;7.00;99.90
37276;DHT22;23166;51.150;21.620;2022-11-14T17:43:10;7.10;99.90
37276;DHT22;23166;51.150;21.620;2022-11-14T17:45:36;7.10;99.90
37276;DHT22;23166;51.150;21.620;2022-11-14T17:48:03;7.00;99.90
37276;DHT22;23166;51.150;21.620;2022-11-14T17:50:30;7.10;99.90
37276;DHT22;23166;51.150;21.620;2022-11-14T17:52:56;7.10;99.90
37276;DHT22;23166;51.150;21.620;2022-11-14T17:55:22;7.10;99.90